Time;durP1;ratioP1;P1;durP2;ratioP2;P2;SDS_P1;SDS_P2;PMS_P1;PMS_P2;Temp;Humidity;BMP_temperature;BMP_pressure;BME280_temperature;BME280_humidity;BME280_pressure;Samples;Min_cycle;Max_cycle;Signal;HPM_P1;HPM_P2
2023/03/25 07:11:06;;;;;;;5.43;1.00;;;;;;;6.91;79.78;96021.59;2082330;28;20917;-58
2023/03/25 07:12:08;;;;;;;4.78;1.13;;;;;;;7.44;77.25;96042.84;2081784;28;20197;-59
2023/03/25 07:15:54;;;;;;;4.07;0.98;;;;;;;7.40;77.77;96029.13;2082881;28;20584;-59
2023/03/25 07:19:52;;;;;;;4.35;1.17;;;;;;;7.59;76.38;96024.03;2081521;28;20576;-59
2023/03/25 07:27:59;;;;;;;6.80;1.00;;;;;;;7.64;77.08;96008.22;2086345;28;20578;-57
2023/03/25 07:30:55;;;;;;;6.10;0.80;;;;;;;7.82;76.96;96006.56;2098378;27;20556;-60
2023/03/25 07:31:56;;;;;;;1.73;0.80;;;;;;;8.14;76.61;96007.75;2102777;28;20207;-59
2023/03/25 07:32:58;;;;;;;2.85;0.80;;;;;;;8.50;75.47;96004.38;2102602;28;20272;-59
2023/03/25 07:34:56;;;;;;;5.75;0.90;;;;;;;8.57;75.85;96009.31;2083399;28;20993;-57
2023/03/25 07:35:58;;;;;;;7.57;1.35;;;;;;;8.80;74.37;96009.06;2078741;28;20209;-58
2023/03/25 07:36:59;;;;;;;5.22;1.20;;;;;;;9.03;73.74;96006.28;2080925;28;20201;-58
2023/03/25 07:38:01;;;;;;;7.90;0.90;;;;;;;8.98;73.89;96004.72;2080009;28;20201;-57
2023/03/25 07:39:03;;;;;;;2.45;0.93;;;;;;;8.94;73.75;96004.97;2078316;28;20204;-57
2023/03/25 07:40:05;;;;;;;5.30;1.10;;;;;;;8.91;73.27;95995.56;2078998;28;20256;-59
2023/03/25 07:41:09;;;;;;;16.60;1.27;;;;;;;8.97;73.16;96003.03;2078380;28;20575;-60
2023/03/25 07:42:10;;;;;;;3.30;1.05;;;;;;;8.84;73.06;95999.38;2078405;28;20616;-59
2023/03/25 07:43:12;;;;;;;5.18;1.38;;;;;;;8.80;73.17;95995.22;2078486;28;20708;-60
2023/03/25 07:44:14;;;;;;;4.85;1.00;;;;;;;8.31;74.15;95999.16;2078202;28;20300;-60
2023/03/25 07:45:18;;;;;;;2.47;1.08;;;;;;;7.84;76.67;96000.38;2076253;28;20637;-59
2023/03/25 07:46:19;;;;;;;5.47;0.98;;;;;;;7.99;77.39;95998.88;2078548;28;20204;-59
2023/03/25 07:47:21;;;;;;;2.95;0.80;;;;;;;8.09;76.58;96006.28;2078436;28;20663;-60
2023/03/25 07:48:23;;;;;;;2.75;0.95;;;;;;;8.44;73.70;96003.81;2080096;28;20192;-60
2023/03/25 07:49:25;;;;;;;5.57;1.63;;;;;;;8.93;72.90;95996.31;2080093;28;20622;-60
2023/03/25 07:50:26;;;;;;;4.38;1.15;;;;;;;9.09;72.03;95999.03;2078290;28;20205;-60
2023/03/25 07:51:29;;;;;;;4.35;0.90;;;;;;;8.53;73.54;95999.97;2080310;28;20193;-60
2023/03/25 07:52:30;;;;;;;1.30;0.80;;;;;;;8.54;73.80;95991.25;2079219;28;20197;-60
2023/03/25 07:53:31;;;;;;;1.45;0.60;;;;;;;8.98;72.78;96002.13;2078618;28;20233;-60
2023/03/25 07:54:33;;;;;;;5.70;0.95;;;;;;;9.23;72.15;96003.56;2074341;28;20260;-60
2023/03/25 07:55:35;;;;;;;3.00;0.90;;;;;;;9.16;71.67;96007.38;2078423;28;20208;-59
2023/03/25 07:56:37;;;;;;;4.25;1.00;;;;;;;8.63;72.19;95989.06;2079029;28;20203;-60
2023/03/25 07:57:40;;;;;;;3.22;0.93;;;;;;;8.92;72.34;95988.56;2079111;28;20204;-60
2023/03/25 07:58:43;;;;;;;2.42;1.15;;;;;;;9.11;71.35;95978.09;2077278;28;20246;-59
2023/03/25 07:59:44;;;;;;;2.53;0.80;;;;;;;9.24;71.67;95993.97;2078415;28;20221;-60
2023/03/25 08:00:46;;;;;;;4.13;1.15;;;;;;;9.26;70.92;95994.75;2077075;28;21206;-59
2023/03/25 08:01:47;;;;;;;2.05;0.70;;;;;;;9.14;70.84;95988.34;2078054;28;20204;-60
2023/03/25 08:02:49;;;;;;;6.25;0.88;;;;;;;9.57;70.37;95988.84;2077765;28;20204;-60
2023/03/25 08:03:51;;;;;;;7.25;0.90;;;;;;;9.83;68.65;95988.38;2077868;28;20201;-60
2023/03/25 08:04:53;;;;;;;2.65;0.80;;;;;;;9.70;68.82;95989.03;2075287;28;20620;-60
2023/03/25 08:05:55;;;;;;;3.00;1.00;;;;;;;9.91;69.69;95991.44;2077829;28;20236;-60
2023/03/25 08:06:56;;;;;;;3.67;0.90;;;;;;;10.18;68.32;95989.13;2078242;28;20391;-60
2023/03/25 08:08:00;;;;;;;4.07;0.93;;;;;;;10.15;67.54;95996.28;2079449;28;20402;-60
2023/03/25 08:09:02;;;;;;;4.78;1.05;;;;;;;10.12;68.38;95985.09;2077815;28;20197;-60
2023/03/25 08:10:04;;;;;;;2.08;0.85;;;;;;;10.18;69.06;95990.91;2077260;28;20221;-60
2023/03/25 08:11:06;;;;;;;8.10;0.93;;;;;;;9.43;70.80;95994.75;2078173;28;20632;-59
2023/03/25 08:12:08;;;;;;;3.13;1.23;;;;;;;8.89;71.53;95999.13;2079632;28;20676;-60
2023/03/25 08:13:10;;;;;;;7.50;1.13;;;;;;;8.63;72.61;96014.22;2077851;28;20197;-60
2023/03/25 08:14:12;;;;;;;2.38;0.80;;;;;;;8.66;72.30;96004.53;2077548;28;20216;-60
2023/03/25 08:15:15;;;;;;;3.33;0.88;;;;;;;8.60;72.38;95997.00;2078479;28;20568;-60
2023/03/25 08:16:17;;;;;;;1.45;0.70;;;;;;;8.53;73.63;95997.38;2078072;28;20287;-60
2023/03/25 08:17:19;;;;;;;10.10;1.30;;;;;;;8.27;73.81;96012.41;2077767;28;20670;-58
2023/03/25 08:18:20;;;;;;;2.47;0.90;;;;;;;8.07;74.01;96019.31;2078735;28;20201;-57
2023/03/25 08:19:21;;;;;;;3.58;0.80;;;;;;;8.22;74.32;96003.97;2078157;28;20198;-58
2023/03/25 08:20:23;;;;;;;5.40;0.93;;;;;;;8.08;73.25;96001.97;2079386;28;20239;-58
2023/03/25 08:21:26;;;;;;;4.55;0.70;;;;;;;8.08;73.10;96017.59;2079483;28;20204;-58
2023/03/25 08:22:27;;;;;;;5.03;1.45;;;;;;;8.02;73.45;96010.88;2077585;28;20296;-58
2023/03/25 08:23:29;;;;;;;3.85;1.10;;;;;;;7.91;74.19;96002.72;2077650;28;20197;-59
2023/03/25 08:24:31;;;;;;;2.92;1.05;;;;;;;7.70;75.56;96017.50;2077170;28;20205;-58
2023/03/25 08:25:32;;;;;;;11.73;1.13;;;;;;;7.54;76.92;96007.75;2078060;28;20190;-58
2023/03/25 08:26:34;;;;;;;4.53;1.10;;;;;;;7.36;76.65;96004.19;2078859;28;20649;-58
2023/03/25 08:27:35;;;;;;;4.65;1.23;;;;;;;7.12;78.60;96029.44;2078237;28;20197;-57
2023/03/25 08:28:37;;;;;;;4.43;1.10;;;;;;;6.85;80.67;96022.69;2077481;28;20199;-57
2023/03/25 08:29:39;;;;;;;2.45;0.90;;;;;;;6.74;82.16;96032.63;2077556;28;20200;-58
2023/03/25 08:30:43;;;;;;;3.20;1.02;;;;;;;6.65;84.83;96020.91;2078099;28;20671;-58
2023/03/25 08:31:45;;;;;;;2.63;0.60;;;;;;;6.62;85.84;96021.00;2078837;28;20643;-59
2023/03/25 08:55:31;;;;;;;1.65;0.88;;;;;;;5.69;92.45;96047.69;2083183;28;20548;-59
2023/03/25 08:56:32;;;;;;;1.70;0.65;;;;;;;6.29;89.93;96036.94;2081530;28;20193;-60
2023/03/25 08:57:35;;;;;;;1.85;0.60;;;;;;;6.21;89.95;96039.00;2082393;28;20225;-61
2023/03/25 08:58:36;;;;;;;1.70;0.50;;;;;;;6.33;87.84;96028.13;2081690;28;20395;-61
2023/03/25 08:59:38;;;;;;;1.23;0.63;;;;;;;6.78;87.04;96018.66;2079288;28;20228;-61
2023/03/25 09:00:39;;;;;;;1.38;0.50;;;;;;;7.10;83.23;96034.69;2073570;28;20819;-61
2023/03/25 09:01:42;;;;;;;3.15;0.75;;;;;;;7.30;82.85;96031.28;2070280;28;20194;-61
2023/03/25 09:02:44;;;;;;;4.55;0.60;;;;;;;7.15;83.34;96024.97;2071689;28;20194;-60
2023/03/25 09:03:46;;;;;;;1.05;0.70;;;;;;;7.43;84.29;96033.38;2070389;28;20288;-61
2023/03/25 09:04:48;;;;;;;2.20;0.60;;;;;;;7.15;83.19;96032.75;2070164;28;20222;-60
2023/03/25 09:05:50;;;;;;;3.03;0.70;;;;;;;6.97;84.36;96031.75;2075442;28;20219;-60
2023/03/25 09:06:51;;;;;;;2.65;0.68;;;;;;;6.90;83.17;96019.91;2072659;28;20240;-60
2023/03/25 09:08:12;;;;;;;3.58;0.80;;;;;;;7.67;82.95;96029.72;2071441;28;20247;-60
2023/03/25 09:09:15;;;;;;;3.03;0.70;;;;;;;8.24;82.66;96026.38;2072408;28;20198;-60
2023/03/25 09:10:17;;;;;;;3.17;0.60;;;;;;;8.07;82.53;96034.09;2069588;28;20229;-60
2023/03/25 09:11:18;;;;;;;1.15;0.60;;;;;;;7.82;82.10;96024.75;2071189;28;20206;-62
2023/03/25 09:12:36;;;;;;;1.98;0.60;;;;;;;7.74;82.95;96034.66;2074693;28;20202;-60
2023/03/25 09:13:37;;;;;;;2.40;0.60;;;;;;;7.25;81.70;96022.84;2074646;28;20198;-60
2023/03/25 09:14:39;;;;;;;1.40;0.50;;;;;;;7.00;82.53;96029.00;2074715;28;20293;-59
2023/03/25 09:15:41;;;;;;;1.25;0.60;;;;;;;7.19;83.55;96031.72;2072449;28;20197;-59
2023/03/25 09:16:42;;;;;;;1.25;0.52;;;;;;;7.25;82.08;96033.22;2071703;28;20225;-59
2023/03/25 09:17:43;;;;;;;2.47;0.68;;;;;;;7.00;82.08;96031.59;2073183;28;20653;-59
2023/03/25 09:18:45;;;;;;;1.58;0.77;;;;;;;7.03;83.01;96028.91;2075011;28;20208;-59
2023/03/25 09:19:46;;;;;;;2.08;0.98;;;;;;;7.33;82.88;96030.31;2073148;28;20696;-59
2023/03/25 09:20:50;;;;;;;2.20;0.60;;;;;;;7.76;82.31;96031.09;2073519;28;20208;-59
2023/03/25 09:21:52;;;;;;;1.77;0.80;;;;;;;7.90;79.90;96022.69;2073265;28;20237;-59
2023/03/25 09:22:54;;;;;;;1.00;0.65;;;;;;;8.07;80.49;96034.09;2069950;28;20690;-59
2023/03/25 09:23:55;;;;;;;2.85;0.70;;;;;;;8.05;80.22;96028.09;2074125;28;20244;-59
2023/03/25 09:24:56;;;;;;;1.25;0.60;;;;;;;7.80;80.63;96034.41;2074287;28;20267;-59
2023/03/25 09:26:02;;;;;;;1.38;0.80;;;;;;;7.93;81.67;96022.53;2070285;28;20198;-59
2023/03/25 09:27:04;;;;;;;1.33;0.60;;;;;;;7.92;81.80;96018.28;2071020;28;20196;-60
2023/03/25 09:28:05;;;;;;;1.88;0.60;;;;;;;8.28;79.77;96022.72;2075086;28;20202;-59
2023/03/25 09:29:07;;;;;;;1.00;0.60;;;;;;;8.33;80.65;96015.56;2074899;28;20196;-59
2023/03/25 09:30:09;;;;;;;1.85;0.80;;;;;;;8.60;79.45;96003.97;2074133;28;20294;-59
2023/03/25 09:31:11;;;;;;;3.28;0.60;;;;;;;8.27;80.53;96018.44;2073679;28;20252;-59
2023/03/25 09:32:13;;;;;;;1.10;0.60;;;;;;;8.25;79.78;96029.81;2073785;28;20205;-60
2023/03/25 09:33:15;;;;;;;1.35;0.60;;;;;;;8.44;79.32;96022.03;2071104;28;20221;-59
2023/03/25 09:34:16;;;;;;;1.35;0.60;;;;;;;8.48;78.98;96019.25;2070598;28;20212;-59
2023/03/25 09:35:18;;;;;;;2.75;0.90;;;;;;;8.15;81.80;96022.44;2070331;28;20799;-60
2023/03/25 09:36:19;;;;;;;1.85;0.70;;;;;;;7.91;82.57;96033.91;2072337;28;20218;-59
2023/03/25 09:37:21;;;;;;;2.35;1.00;;;;;;;7.64;83.09;96018.59;2074620;28;20226;-59
2023/03/25 09:38:22;;;;;;;2.85;1.30;;;;;;;7.45;83.84;96028.94;2070065;28;20198;-59
2023/03/25 09:39:24;;;;;;;1.48;0.70;;;;;;;7.24;85.50;96022.88;2072066;28;20280;-59
2023/03/25 09:40:25;;;;;;;2.42;0.90;;;;;;;7.34;86.62;96022.44;2073434;28;20220;-59
2023/03/25 09:41:46;;;;;;;2.40;0.80;;;;;;;8.00;82.87;96023.13;2072278;28;20202;-59
2023/03/25 09:42:57;;;;;;;1.20;0.70;;;;;;;8.39;80.15;96031.78;2077553;28;20207;-59
2023/03/25 09:44:22;;;;;;;1.10;0.52;;;;;;;8.76;78.86;96022.31;2077937;28;20234;-59
2023/03/25 09:45:40;;;;;;;2.95;0.80;;;;;;;9.29;77.39;96024.09;2073087;28;20346;-60
2023/03/25 09:46:43;;;;;;;7.70;0.60;;;;;;;9.41;76.95;96011.38;2072726;28;20231;-60
2023/03/25 09:47:55;;;;;;;3.95;0.70;;;;;;;9.22;75.78;96019.22;2073743;28;20261;-59
2023/03/25 09:48:57;;;;;;;1.77;0.60;;;;;;;9.80;75.38;96031.09;2071646;28;20194;-59
2023/03/25 09:50:05;;;;;;;1.70;0.68;;;;;;;9.26;75.15;96033.81;2070513;28;20226;-59
2023/03/25 09:51:13;;;;;;;1.73;0.60;;;;;;;8.82;76.18;96014.19;2074010;28;20684;-59
2023/03/25 09:52:21;;;;;;;2.65;0.63;;;;;;;8.80;78.98;96011.69;2071417;28;20301;-59
2023/03/25 09:53:56;;;;;;;1.30;0.68;;;;;;;8.93;77.42;96024.13;2073117;28;20267;-60
2023/03/25 09:55:03;;;;;;;1.52;0.57;;;;;;;8.54;78.62;96020.72;2075460;28;20261;-59
2023/03/25 09:56:10;;;;;;;1.40;0.60;;;;;;;8.38;77.65;96015.34;2075354;28;20205;-59
2023/03/25 09:57:19;;;;;;;0.98;0.50;;;;;;;8.40;78.53;96017.88;2073800;28;20206;-58
2023/03/25 09:58:20;;;;;;;2.05;0.80;;;;;;;8.61;78.70;96022.13;2074709;28;20232;-59
2023/03/25 09:59:35;;;;;;;1.30;0.70;;;;;;;8.37;77.21;96024.06;2077487;28;20879;-59
2023/03/25 10:00:39;;;;;;;7.35;0.70;;;;;;;8.35;78.22;96023.28;2076534;28;20236;-60
2023/03/25 10:01:50;;;;;;;1.98;0.70;;;;;;;9.44;76.15;96024.25;2074959;28;20232;-60
2023/03/25 10:03:18;;;;;;;1.58;0.50;;;;;;;10.37;72.50;96019.50;2074055;28;20208;-60
2023/03/25 10:04:20;;;;;;;1.00;0.68;;;;;;;10.52;71.04;96026.50;2074115;28;20197;-60
2023/03/25 10:05:43;;;;;;;0.90;0.52;;;;;;;10.42;71.28;96022.69;2070502;28;20228;-60
2023/03/25 10:06:56;;;;;;;2.30;0.80;;;;;;;10.91;69.89;96021.78;2072360;28;20229;-60
2023/03/25 10:08:12;;;;;;;1.95;0.80;;;;;;;11.02;68.92;96023.78;2070860;28;20198;-60
2023/03/25 10:09:43;;;;;;;1.63;0.68;;;;;;;10.38;71.19;96021.19;2068909;28;20286;-60
2023/03/25 10:11:14;;;;;;;1.80;0.60;;;;;;;9.60;73.67;96026.94;2067967;28;20213;-60
2023/03/25 10:12:32;;;;;;;2.60;0.80;;;;;;;9.29;74.56;96029.31;2070444;28;20237;-60
2023/03/25 10:14:00;;;;;;;1.10;0.63;;;;;;;9.95;71.81;96034.69;2066997;28;20224;-60
2023/03/25 10:15:13;;;;;;;5.18;0.90;;;;;;;9.54;72.52;96035.88;2083087;28;20228;-60
2023/03/25 10:16:40;;;;;;;3.50;0.80;;;;;;;9.26;74.30;96032.03;2079318;28;20862;-59
2023/03/25 10:17:55;;;;;;;1.63;0.70;;;;;;;9.39;72.42;96050.50;2070305;28;20260;-59
2023/03/25 10:19:16;;;;;;;1.42;0.60;;;;;;;9.85;70.60;96023.06;2066639;28;20566;-59
2023/03/25 10:20:42;;;;;;;1.50;0.60;;;;;;;10.26;70.56;96030.50;2063841;28;20226;-59
2023/03/25 10:21:56;;;;;;;1.10;0.60;;;;;;;10.35;70.81;96019.56;2065970;28;20210;-59
2023/03/25 10:23:00;;;;;;;2.55;0.60;;;;;;;10.17;70.69;96023.13;2066902;28;20204;-60
2023/03/25 10:24:16;;;;;;;2.22;0.73;;;;;;;10.76;69.00;96032.13;2066440;28;20201;-59
2023/03/25 10:25:23;;;;;;;1.83;0.70;;;;;;;10.38;69.51;96018.56;2067514;28;20222;-59
2023/03/25 10:26:41;;;;;;;0.90;0.50;;;;;;;10.00;70.76;96021.41;2067146;28;20210;-59
2023/03/25 10:27:50;;;;;;;1.33;0.60;;;;;;;10.24;71.57;96025.31;2067361;28;20229;-59
2023/03/25 10:29:03;;;;;;;8.23;0.77;;;;;;;10.09;70.99;96031.38;2067416;28;20565;-58
2023/03/25 10:30:08;;;;;;;4.97;0.70;;;;;;;10.01;71.37;96025.72;2068163;28;20230;-59
2023/03/25 10:31:16;;;;;;;2.45;0.60;;;;;;;9.93;71.84;96033.94;2067601;28;20194;-59
2023/03/25 10:32:31;;;;;;;2.95;0.60;;;;;;;9.60;72.15;96019.94;2067789;28;20209;-59
2023/03/25 10:33:40;;;;;;;3.67;0.70;;;;;;;9.27;72.98;96018.09;2066886;28;20240;-58
2023/03/25 10:34:49;;;;;;;5.28;0.70;;;;;;;9.11;74.01;96028.41;2067249;28;20198;-59
2023/03/25 10:35:50;;;;;;;3.60;0.73;;;;;;;8.98;74.03;96030.78;2069521;28;20224;-59
2023/03/25 10:36:56;;;;;;;4.72;0.85;;;;;;;8.92;73.94;96025.88;2064365;28;20244;-59
2023/03/25 10:38:09;;;;;;;2.42;0.70;;;;;;;8.75;73.12;96008.44;2064776;28;20198;-59
2023/03/25 10:39:18;;;;;;;4.82;0.82;;;;;;;8.52;73.14;96014.75;2068088;28;20281;-58
2023/03/25 10:40:30;;;;;;;3.58;0.70;;;;;;;8.61;73.83;96027.31;2081995;28;20229;-59
2023/03/25 10:41:38;;;;;;;5.07;1.48;;;;;;;8.64;73.62;96023.72;2070024;28;20201;-59
2023/03/25 10:43:04;;;;;;;1.65;0.90;;;;;;;8.76;72.75;96017.97;2067247;28;20206;-60
2023/03/25 10:44:10;;;;;;;2.42;0.88;;;;;;;8.69;73.24;96032.16;2067837;28;20210;-59
2023/03/25 10:45:14;;;;;;;3.55;0.60;;;;;;;8.69;74.03;96034.78;2066595;28;20240;-59
2023/03/25 10:46:19;;;;;;;0.90;0.60;;;;;;;8.86;74.54;96035.72;2066170;28;20697;-59
2023/03/25 10:47:28;;;;;;;1.00;0.60;;;;;;;9.86;71.95;96028.19;2068485;28;20206;-59
2023/03/25 10:48:30;;;;;;;2.90;0.80;;;;;;;10.02;71.15;96040.41;2067507;28;20289;-60
2023/03/25 10:49:33;;;;;;;2.42;0.80;;;;;;;9.98;70.86;96042.38;2063864;28;20702;-60
2023/03/25 10:50:35;;;;;;;4.00;0.65;;;;;;;10.43;68.39;96042.66;2080183;28;20209;-60
2023/03/25 10:51:37;;;;;;;3.50;0.60;;;;;;;10.84;67.27;96034.31;2082396;28;20207;-59
2023/03/25 10:52:40;;;;;;;3.22;0.93;;;;;;;11.11;66.26;96036.34;2067395;28;20228;-60
2023/03/25 10:53:46;;;;;;;1.65;0.63;;;;;;;11.22;65.18;96041.81;2067167;28;20195;-59
2023/03/25 10:54:52;;;;;;;1.67;0.82;;;;;;;11.63;65.00;96031.63;2066164;28;20582;-59
2023/03/25 10:56:07;;;;;;;1.40;0.70;;;;;;;11.33;64.91;96048.19;2067550;28;20302;-59
2023/03/25 10:57:19;;;;;;;2.25;0.70;;;;;;;10.49;66.29;96033.63;2068342;28;20225;-59
2023/03/25 10:58:21;;;;;;;2.75;0.50;;;;;;;9.88;68.88;96015.91;2067953;28;20202;-59
2023/03/25 10:59:29;;;;;;;2.10;0.68;;;;;;;10.49;68.59;96031.88;2066416;28;20199;-59
2023/03/25 11:00:30;;;;;;;1.67;0.68;;;;;;;10.91;67.32;96016.56;2067877;28;20675;-59
2023/03/25 11:01:41;;;;;;;1.85;0.60;;;;;;;10.95;66.60;96016.28;2073979;28;20293;-60
2023/03/25 11:02:43;;;;;;;2.63;0.80;;;;;;;10.50;68.50;95983.97;2070378;28;20205;-59
2023/03/25 11:03:52;;;;;;;1.63;0.60;;;;;;;10.44;67.90;96023.47;2064607;28;20205;-59
2023/03/25 11:04:57;;;;;;;1.20;0.63;;;;;;;10.05;69.65;96032.44;2075200;28;20225;-59
2023/03/25 11:05:59;;;;;;;1.35;0.60;;;;;;;11.60;67.49;96030.03;2073283;28;20189;-59
2023/03/25 11:07:04;;;;;;;3.15;0.70;;;;;;;11.11;67.14;96025.88;2067860;28;20209;-59
2023/03/25 11:08:09;;;;;;;1.27;0.77;;;;;;;10.66;66.01;96037.97;2067833;28;20198;-59
2023/03/25 11:09:31;;;;;;;4.45;0.73;;;;;;;10.98;66.03;96030.09;2066817;28;20222;-59
2023/03/25 11:10:33;;;;;;;2.08;0.70;;;;;;;11.04;66.27;96021.94;2065455;28;20752;-59
2023/03/25 11:11:35;;;;;;;2.13;0.70;;;;;;;10.74;65.96;96020.94;2084268;28;20662;-59
2023/03/25 11:12:37;;;;;;;3.67;0.70;;;;;;;10.05;67.57;95991.53;2082751;28;20193;-59
2023/03/25 11:13:42;;;;;;;1.92;0.60;;;;;;;9.64;68.49;96013.63;2067817;28;20201;-58
2023/03/25 11:14:52;;;;;;;2.70;0.60;;;;;;;9.42;67.84;96026.06;2065620;28;20684;-59
2023/03/25 11:15:58;;;;;;;3.05;0.90;;;;;;;10.24;66.08;96012.28;2067362;28;20198;-61
2023/03/25 11:17:04;;;;;;;1.50;0.68;;;;;;;9.63;67.14;95998.91;2082139;28;20601;-60
2023/03/25 11:18:39;;;;;;;1.85;0.85;;;;;;;9.26;69.13;96018.19;2081189;28;20209;-60
2023/03/25 11:19:45;;;;;;;1.83;0.73;;;;;;;9.86;67.56;96015.16;2075967;28;20205;-61
2023/03/25 11:20:54;;;;;;;3.42;0.60;;;;;;;9.52;68.41;96008.22;2073701;28;20236;-61
2023/03/25 11:22:06;;;;;;;4.43;0.80;;;;;;;9.50;68.92;96003.09;2066259;28;20646;-61
2023/03/25 11:23:21;;;;;;;3.75;0.80;;;;;;;10.35;68.03;96000.41;2066631;28;20209;-61
2023/03/25 11:24:30;;;;;;;1.23;0.65;;;;;;;10.94;65.27;95988.50;2068830;28;20233;-61
2023/03/25 11:25:36;;;;;;;3.38;0.70;;;;;;;11.12;63.12;95996.19;2067567;28;20254;-60
2023/03/25 11:26:40;;;;;;;2.33;0.70;;;;;;;11.63;63.08;96010.72;2067145;28;20827;-60
2023/03/25 11:27:52;;;;;;;3.70;0.75;;;;;;;11.35;62.36;96001.88;2067465;28;20190;-59
2023/03/25 11:28:59;;;;;;;4.32;1.00;;;;;;;11.82;61.14;96005.22;2069981;28;20194;-59
2023/03/25 11:30:13;;;;;;;4.93;0.80;;;;;;;11.67;61.75;96007.84;2079534;28;20336;-59
2023/03/25 11:31:20;;;;;;;4.00;0.70;;;;;;;11.63;62.47;96008.09;2079723;28;20238;-59
2023/03/25 11:32:30;;;;;;;2.10;0.90;;;;;;;11.29;62.52;96005.69;2069938;28;20217;-64
2023/03/25 11:33:32;;;;;;;4.00;1.10;;;;;;;11.00;63.92;95991.69;2067317;28;20206;-58
2023/03/25 11:34:40;;;;;;;5.78;0.85;;;;;;;11.73;63.31;95991.78;2066600;28;20226;-59
2023/03/25 11:35:43;;;;;;;2.20;1.00;;;;;;;11.64;62.85;96004.56;2067382;28;20615;-59
2023/03/25 11:36:58;;;;;;;4.15;0.95;;;;;;;11.99;61.47;95991.19;2065004;28;20212;-59
2023/03/25 11:38:11;;;;;;;7.93;1.25;;;;;;;12.11;60.65;95994.81;2066631;28;20209;-59
2023/03/25 11:39:18;;;;;;;3.05;0.82;;;;;;;11.80;60.41;95994.03;2066953;28;20231;-58
2023/03/25 11:40:19;;;;;;;2.40;0.90;;;;;;;11.43;62.29;95995.28;2065302;28;20862;-58
2023/03/25 11:41:21;;;;;;;11.10;1.17;;;;;;;11.93;62.41;96001.06;2063900;28;20207;-59
2023/03/25 11:42:31;;;;;;;3.08;1.30;;;;;;;12.32;61.50;96000.53;2066112;28;20200;-59
2023/03/25 11:43:36;;;;;;;3.17;0.90;;;;;;;11.65;60.88;96004.47;2067549;28;20701;-59
2023/03/25 11:44:38;;;;;;;2.45;1.00;;;;;;;10.80;63.18;96001.47;2066178;28;20265;-59
2023/03/25 11:45:44;;;;;;;4.03;1.17;;;;;;;10.08;65.03;96021.84;2067921;28;20201;-58
2023/03/25 11:46:49;;;;;;;6.15;0.70;;;;;;;9.86;69.44;96019.53;2067050;28;20289;-59
2023/03/25 11:47:51;;;;;;;3.63;0.70;;;;;;;9.32;70.62;96023.94;2067440;28;20669;-59
2023/03/25 11:48:53;;;;;;;3.28;0.75;;;;;;;9.21;74.65;96023.63;2066353;28;20241;-59
2023/03/25 11:49:54;;;;;;;1.80;0.70;;;;;;;10.14;72.39;96011.09;2066003;28;20256;-58
2023/03/25 11:51:00;;;;;;;1.40;0.85;;;;;;;10.07;72.85;96013.19;2066755;28;20538;-58
2023/03/25 11:52:17;;;;;;;2.70;0.65;;;;;;;10.02;73.73;96011.72;2067704;28;20205;-58
2023/03/25 11:53:20;;;;;;;1.58;0.68;;;;;;;10.06;73.27;96018.50;2066602;28;20567;-58
2023/03/25 11:54:24;;;;;;;4.13;1.10;;;;;;;10.50;72.46;96014.44;2066998;28;20228;-58
2023/03/25 11:55:29;;;;;;;5.65;0.90;;;;;;;10.91;72.05;95999.09;2066014;28;20230;-59
2023/03/25 11:56:37;;;;;;;2.33;0.80;;;;;;;10.78;67.87;96011.19;2065333;28;20218;-60
2023/03/25 11:57:40;;;;;;;2.97;0.80;;;;;;;10.81;67.64;95997.94;2066425;28;20244;-59
2023/03/25 11:58:42;;;;;;;2.13;0.80;;;;;;;10.56;67.12;96001.94;2066568;28;20767;-58
2023/03/25 11:59:46;;;;;;;4.20;0.82;;;;;;;10.91;67.11;96004.31;2067880;28;20565;-58
2023/03/25 12:00:52;;;;;;;4.30;0.95;;;;;;;11.43;66.09;96010.97;2068307;28;20198;-58
2023/03/25 12:02:19;;;;;;;3.55;0.80;;;;;;;11.41;65.74;96017.22;2067896;28;20214;-58
2023/03/25 12:03:25;;;;;;;2.38;0.70;;;;;;;11.23;64.77;96001.66;2066670;28;20199;-58
2023/03/25 12:04:28;;;;;;;4.75;0.93;;;;;;;11.20;64.72;96004.44;2063811;28;20202;-58
2023/03/25 12:05:31;;;;;;;2.85;0.75;;;;;;;10.85;65.46;96012.50;2064757;28;20226;-59
2023/03/25 12:06:32;;;;;;;3.50;0.77;;;;;;;11.53;65.22;96010.41;2063629;28;20199;-59
2023/03/25 12:07:49;;;;;;;3.55;0.73;;;;;;;11.96;64.76;96013.16;2067198;28;20339;-60
2023/03/25 12:08:58;;;;;;;1.98;0.77;;;;;;;11.72;63.37;96015.44;2063600;28;20620;-60
2023/03/25 12:10:05;;;;;;;4.40;0.85;;;;;;;11.51;63.76;96020.97;2064920;28;20210;-60
2023/03/25 12:11:13;;;;;;;4.00;0.70;;;;;;;11.50;64.22;96021.88;2067299;28;20822;-60
2023/03/25 12:12:25;;;;;;;2.85;0.85;;;;;;;11.37;64.60;96031.41;2069244;28;20203;-59
2023/03/25 12:14:04;;;;;;;1.58;0.75;;;;;;;11.58;65.20;96026.69;2066414;28;20197;-59
2023/03/25 12:15:16;;;;;;;1.20;0.60;;;;;;;10.42;67.56;96040.97;2067223;28;20246;-58
2023/03/25 12:16:40;;;;;;;1.83;0.70;;;;;;;9.68;68.98;96035.19;2066224;28;20227;-58
2023/03/25 12:17:50;;;;;;;2.63;0.70;;;;;;;9.54;70.38;96043.72;2066886;28;20213;-60
2023/03/25 12:19:22;;;;;;;2.60;0.82;;;;;;;9.26;71.08;96032.03;2066681;28;20244;-59
2023/03/25 12:20:49;;;;;;;2.85;0.70;;;;;;;8.90;73.91;96026.84;2060458;28;20222;-60
2023/03/25 12:22:06;;;;;;;2.65;0.70;;;;;;;8.85;74.95;96032.31;2066101;28;20653;-60
2023/03/25 12:23:47;;;;;;;4.97;0.88;;;;;;;8.61;75.63;96053.34;2067725;28;20197;-59
2023/03/25 12:25:25;;;;;;;3.05;1.10;;;;;;;8.27;76.67;96056.63;2066136;28;20232;-59
2023/03/25 12:26:44;;;;;;;10.60;0.80;;;;;;;8.00;78.27;96075.13;2069274;28;20206;-59
2023/03/25 12:27:49;;;;;;;5.53;0.93;;;;;;;7.94;81.11;96057.19;2063560;28;20260;-59
2023/03/25 12:28:53;;;;;;;5.20;1.80;;;;;;;7.75;81.50;96075.34;2064975;28;20661;-59
2023/03/25 12:30:06;;;;;;;6.60;1.25;;;;;;;7.58;81.13;96074.28;2066290;28;20227;-59
2023/03/25 12:31:45;;;;;;;2.55;0.80;;;;;;;7.27;83.54;96078.13;2067636;28;20984;-59
2023/03/25 12:32:52;;;;;;;1.20;0.70;;;;;;;7.14;87.27;96056.19;2066478;28;20249;-59
2023/03/25 12:34:07;;;;;;;1.70;0.77;;;;;;;7.11;87.56;96064.94;2070417;28;20221;-60
2023/03/25 12:35:36;;;;;;;1.35;0.80;;;;;;;8.46;83.66;96061.88;2069220;28;20219;-59
2023/03/25 12:36:43;;;;;;;2.10;0.60;;;;;;;8.74;80.40;96063.19;2065746;28;20198;-59
2023/03/25 12:37:56;;;;;;;1.30;0.65;;;;;;;8.99;79.70;96063.72;2063511;28;20945;-59
2023/03/25 12:39:16;;;;;;;2.58;0.75;;;;;;;9.09;76.71;96064.13;2068874;28;20229;-60
2023/03/25 12:40:26;;;;;;;3.15;0.70;;;;;;;9.33;76.49;96050.81;2063539;28;20626;-59
2023/03/25 12:41:43;;;;;;;3.70;0.70;;;;;;;9.53;76.82;96059.44;2065948;28;20204;-60
2023/03/25 12:43:03;;;;;;;2.45;0.57;;;;;;;9.92;77.53;96051.34;2067876;28;20232;-60
2023/03/25 12:44:37;;;;;;;0.95;0.60;;;;;;;10.03;75.05;96053.41;2066702;28;20196;-60
2023/03/25 12:45:53;;;;;;;1.45;0.70;;;;;;;10.34;72.38;96050.97;2065393;28;20761;-60
2023/03/25 12:47:02;;;;;;;2.00;0.98;;;;;;;9.69;71.11;96039.50;2082452;28;20189;-60
2023/03/25 12:48:18;;;;;;;2.90;0.95;;;;;;;10.24;71.93;96047.97;2081438;28;20296;-60
2023/03/25 12:49:37;;;;;;;1.75;0.60;;;;;;;10.22;70.01;96044.59;2066049;28;20732;-60
2023/03/25 12:50:58;;;;;;;5.22;0.85;;;;;;;9.73;70.16;96041.00;2065404;28;20221;-60
2023/03/25 12:52:25;;;;;;;3.05;0.70;;;;;;;10.01;71.70;96036.16;2067849;28;20534;-59
2023/03/25 12:53:46;;;;;;;1.67;0.80;;;;;;;10.19;71.40;96043.00;2065987;28;20202;-59
2023/03/25 12:54:56;;;;;;;2.00;1.05;;;;;;;9.59;71.00;96052.13;2064917;28;20201;-60
2023/03/25 12:56:13;;;;;;;2.05;0.70;;;;;;;9.24;74.42;96052.13;2065477;28;20337;-59
2023/03/25 12:57:38;;;;;;;2.22;0.80;;;;;;;9.79;72.51;96045.91;2063243;28;20218;-60
2023/03/25 12:59:12;;;;;;;7.50;0.68;;;;;;;10.03;72.08;96056.03;2063739;28;20194;-60
2023/03/25 13:00:32;;;;;;;3.20;0.70;;;;;;;9.73;72.72;96048.00;2065722;28;20218;-59
2023/03/25 13:02:00;;;;;;;4.30;0.93;;;;;;;10.37;70.94;96043.81;2065534;28;20228;-58
2023/03/25 13:03:33;;;;;;;7.53;1.40;;;;;;;10.28;71.03;96037.31;2064764;28;20887;-60
2023/03/25 13:04:48;;;;;;;7.40;2.50;;;;;;;10.07;71.13;96038.44;2067138;28;20197;-58
2023/03/25 13:06:13;;;;;;;8.38;3.28;;;;;;;10.15;70.18;96041.47;2065247;28;20201;-59
2023/03/25 13:07:20;;;;;;;1.92;0.70;;;;;;;10.64;69.85;96045.88;2063152;28;20194;-59
2023/03/25 13:08:33;;;;;;;3.60;0.82;;;;;;;10.39;69.97;96031.53;2065864;28;20293;-59
2023/03/25 13:09:52;;;;;;;3.28;0.70;;;;;;;10.56;69.31;96038.47;2067497;28;20191;-59
2023/03/25 13:11:06;;;;;;;1.17;0.70;;;;;;;10.65;69.30;96042.31;2066025;28;20194;-59
2023/03/25 13:12:13;;;;;;;3.40;1.10;;;;;;;10.25;69.86;96057.50;2065472;28;20198;-58
2023/03/25 13:13:26;;;;;;;1.90;1.00;;;;;;;9.55;70.45;96050.59;2067128;28;20197;-58